Yankton, South Dakota
Current Conditions -  °F | °C
As of 12:35 AM on Thursday 23 Oct 2014 (Local Time) from KYKN Reporting Station
Overcast Overcast  
Wind Chill: 50°   Ceiling: 500
Heat Index: 50°   Visibility: 0.5mi
Dew Point: 48°   Wind: 5mph
Humidity: 94%   Direction: 230°SW
Pressure: 30.02"   Gusts: NA
Location:  42.87°N, 97.4°W
Report Text: KYKN 230535Z AUTO 23004KT 1/2SM VV005 10/09 A3002 RMK AO1
Loading
Personal Weather Stations






























Interactive Weather Map
Tropical Storm Tracking
New forecast layout! Learn more

10-Day Weather Forecast

Advertisements
Track Severe Weather on mobile